Time;durP1;ratioP1;P1;durP2;ratioP2;P2;SDS_P1;SDS_P2;PMS_P1;PMS_P2;Temp;Humidity;BMP_temperature;BMP_pressure;BME280_temperature;BME280_humidity;BME280_pressure;Samples;Min_cycle;Max_cycle;Signal;HPM_P1;HPM_P2
2021/12/31 00:00:23;;;;;;;4.30;2.30;;;;;;;;;;5113283;22;20976;-75
2021/12/31 00:03:17;;;;;;;;;;;;;;;;;;;;;
2021/12/31 00:05:44;;;;;;;3.33;1.93;;;;;;;;;;5106066;28;20472;-76
2021/12/31 00:08:12;;;;;;;5.20;2.20;;;;;;;;;;5110419;28;20460;-76
2021/12/31 00:10:39;;;;;;;4.63;2.70;;;;;;;;;;5103814;28;20486;-76
2021/12/31 00:13:07;;;;;;;3.50;1.97;;;;;;;;;;5087293;28;20448;-76
2021/12/31 00:15:35;;;;;;;3.50;2.00;;;;;;;;;;5090635;28;20473;-76
2021/12/31 00:18:02;;;;;;;3.30;2.03;;;;;;;;;;5094623;28;20800;-75
2021/12/31 00:20:29;;;;;;;3.03;2.23;;;;;;;;;;5094829;28;20509;-75
2021/12/31 00:23:03;;;;;;;2.47;1.80;;;;;;;;;;5092547;28;20560;-76
2021/12/31 00:25:31;;;;;;;5.13;2.10;;;;;;;;;;5091765;28;20902;-77
2021/12/31 00:27:58;;;;;;;4.10;2.30;;;;;;;;;;5090714;28;20460;-76
2021/12/31 00:30:27;;;;;;;3.30;1.87;;;;;;;;;;5093382;28;20496;-75
2021/12/31 00:32:54;;;;;;;4.10;1.93;;;;;;;;;;5075485;28;20447;-76
2021/12/31 00:35:21;;;;;;;4.43;2.13;;;;;;;;;;5092995;28;20464;-76
2021/12/31 00:37:48;;;;;;;4.13;2.13;;;;;;;;;;5093460;28;20485;-77
2021/12/31 00:40:16;;;;;;;3.90;2.03;;;;;;;;;;5095677;28;20462;-76
2021/12/31 00:42:44;;;;;;;4.60;1.77;;;;;;;;;;5093798;28;20458;-76
2021/12/31 00:45:12;;;;;;;3.30;1.67;;;;;;;;;;5093398;28;20978;-79
2021/12/31 00:47:40;;;;;;;3.10;1.70;;;;;;;;;;5089088;28;20447;-76
2021/12/31 00:50:08;;;;;;;4.53;1.93;;;;;;;;;;5090091;28;20489;-76
2021/12/31 00:52:35;;;;;;;3.70;1.80;;;;;;;;;;5090608;28;20460;-77
2021/12/31 00:55:02;;;;;;;3.20;1.97;;;;;;;;;;5071572;28;20462;-78
2021/12/31 00:57:30;;;;;;;5.77;2.57;;;;;;;;;;5091997;28;20450;-75
2021/12/31 00:59:57;;;;;;;6.00;1.90;;;;;;;;;;5092392;28;20976;-75
2021/12/31 01:02:27;;;;;;;5.70;1.87;;;;;;;;;;5089032;28;20509;-76
2021/12/31 01:04:56;;;;;;;3.40;1.70;;;;;;;;;;5071761;28;20457;-76
2021/12/31 01:07:23;;;;;;;3.43;1.33;;;;;;;;;;5090765;28;20453;-75
2021/12/31 01:09:50;;;;;;;3.20;1.80;;;;;;;;;;5086779;28;20474;-75
2021/12/31 01:12:17;;;;;;;2.20;1.50;;;;;;;;;;5091450;28;21090;-76
2021/12/31 01:14:54;;;;;;;4.17;1.90;;;;;;;;;;5092468;28;20446;-77
2021/12/31 01:17:37;;;;;;;3.00;1.83;;;;;;;;;;5091046;28;20473;-76
2021/12/31 01:20:07;;;;;;;2.30;1.67;;;;;;;;;;5090104;28;20813;-76
2021/12/31 01:22:34;;;;;;;3.67;1.60;;;;;;;;;;5090795;28;20439;-75
2021/12/31 01:25:04;;;;;;;1.87;1.70;;;;;;;;;;5091800;28;20448;-75
2021/12/31 01:27:31;;;;;;;4.40;1.50;;;;;;;;;;5073472;28;20450;-75
2021/12/31 01:29:58;;;;;;;4.50;1.60;;;;;;;;;;5092390;28;20479;-76
2021/12/31 01:32:25;;;;;;;3.67;1.80;;;;;;;;;;5090837;28;20485;-76
2021/12/31 01:34:53;;;;;;;1.93;1.50;;;;;;;;;;5093090;28;20557;-76
2021/12/31 01:37:21;;;;;;;2.10;1.63;;;;;;;;;;5090034;28;20931;-75
2021/12/31 01:39:48;;;;;;;3.00;1.50;;;;;;;;;;5088712;28;20463;-75
2021/12/31 01:42:17;;;;;;;2.63;2.10;;;;;;;;;;5091625;28;20461;-76
2021/12/31 01:44:54;;;;;;;1.63;1.40;;;;;;;;;;5090677;28;20550;-76
2021/12/31 01:47:23;;;;;;;2.37;1.40;;;;;;;;;;5076082;28;20446;-75
2021/12/31 01:49:55;;;;;;;2.90;1.57;;;;;;;;;;5088203;28;20481;-76
2021/12/31 01:52:24;;;;;;;1.67;1.40;;;;;;;;;;5092687;28;20462;-75
2021/12/31 01:54:51;;;;;;;3.20;1.50;;;;;;;;;;5070575;28;20446;-76
2021/12/31 01:57:19;;;;;;;2.20;1.77;;;;;;;;;;5071869;28;20805;-77
2021/12/31 01:59:46;;;;;;;7.50;1.87;;;;;;;;;;5072524;28;20469;-76
2021/12/31 02:02:13;;;;;;;5.70;1.93;;;;;;;;;;5090185;28;20497;-76
2021/12/31 02:04:41;;;;;;;2.43;1.70;;;;;;;;;;5091549;28;20448;-76
2021/12/31 02:07:08;;;;;;;1.93;1.53;;;;;;;;;;5072437;28;20485;-76
2021/12/31 02:09:42;;;;;;;2.90;1.57;;;;;;;;;;5092102;28;20467;-76
2021/12/31 02:12:11;;;;;;;3.43;1.70;;;;;;;;;;5089339;28;20471;-76
2021/12/31 02:14:38;;;;;;;3.97;1.90;;;;;;;;;;5086657;28;20994;-77
2021/12/31 02:17:07;;;;;;;2.10;1.77;;;;;;;;;;5090524;28;20470;-75
2021/12/31 02:19:35;;;;;;;3.33;1.80;;;;;;;;;;5069863;28;20458;-76
2021/12/31 02:22:04;;;;;;;2.83;1.63;;;;;;;;;;5090281;28;20543;-77
2021/12/31 02:24:35;;;;;;;4.00;1.77;;;;;;;;;;5090233;28;20472;-75
2021/12/31 02:27:02;;;;;;;3.00;1.67;;;;;;;;;;5074479;28;20498;-77
2021/12/31 02:29:29;;;;;;;3.80;1.73;;;;;;;;;;5091125;28;20458;-76
2021/12/31 02:31:56;;;;;;;2.90;1.57;;;;;;;;;;5073931;28;20471;-76
2021/12/31 02:34:23;;;;;;;2.00;1.70;;;;;;;;;;5089189;28;20446;-76
2021/12/31 02:36:51;;;;;;;2.17;1.63;;;;;;;;;;5087530;28;20464;-76
2021/12/31 02:39:20;;;;;;;3.00;1.70;;;;;;;;;;5090762;28;20458;-76
2021/12/31 02:41:47;;;;;;;5.23;1.53;;;;;;;;;;5090818;28;20454;-76
2021/12/31 02:44:14;;;;;;;3.23;1.90;;;;;;;;;;5092101;28;20448;-76
2021/12/31 02:46:41;;;;;;;2.40;1.63;;;;;;;;;;5090155;28;20665;-76
2021/12/31 02:49:09;;;;;;;3.37;1.60;;;;;;;;;;5092565;28;20484;-75
2021/12/31 02:51:36;;;;;;;3.83;1.70;;;;;;;;;;5090679;28;20489;-76
2021/12/31 02:54:07;;;;;;;3.63;1.80;;;;;;;;;;5090993;28;20458;-75
2021/12/31 02:56:36;;;;;;;2.30;1.53;;;;;;;;;;5074772;28;20448;-75
2021/12/31 02:59:03;;;;;;;2.23;1.37;;;;;;;;;;5090684;28;20442;-75
2021/12/31 03:01:30;;;;;;;3.17;1.63;;;;;;;;;;5084069;28;20467;-76
2021/12/31 03:03:58;;;;;;;2.70;1.40;;;;;;;;;;5088864;28;20461;-76
2021/12/31 03:06:25;;;;;;;2.53;2.33;;;;;;;;;;5089461;28;20804;-75
2021/12/31 03:08:53;;;;;;;2.10;1.47;;;;;;;;;;5091266;28;20450;-75
2021/12/31 03:11:21;;;;;;;1.33;1.20;;;;;;;;;;5079219;28;20479;-76
2021/12/31 03:13:52;;;;;;;2.93;1.80;;;;;;;;;;5085024;28;20445;-74
2021/12/31 03:16:20;;;;;;;1.97;1.70;;;;;;;;;;5086246;28;20465;-75
2021/12/31 03:18:47;;;;;;;1.20;1.10;;;;;;;;;;5087956;28;20470;-76
2021/12/31 03:21:21;;;;;;;2.63;1.70;;;;;;;;;;5090033;28;20462;-76
2021/12/31 03:23:49;;;;;;;2.00;1.47;;;;;;;;;;5089527;28;20462;-76
2021/12/31 03:26:16;;;;;;;2.53;1.53;;;;;;;;;;5087566;28;20458;-76
2021/12/31 03:28:43;;;;;;;2.30;1.90;;;;;;;;;;5088945;28;20794;-75
2021/12/31 03:31:12;;;;;;;1.90;1.60;;;;;;;;;;5088036;28;20498;-75
2021/12/31 03:33:39;;;;;;;2.33;1.40;;;;;;;;;;5085920;28;20474;-76
2021/12/31 03:36:07;;;;;;;3.20;1.60;;;;;;;;;;5090180;28;21041;-76
2021/12/31 03:38:34;;;;;;;1.67;1.23;;;;;;;;;;5089667;28;20441;-75
2021/12/31 03:41:01;;;;;;;4.67;1.90;;;;;;;;;;5089698;28;20973;-75
2021/12/31 03:43:28;;;;;;;3.60;1.60;;;;;;;;;;5089064;28;20440;-75
2021/12/31 03:45:55;;;;;;;1.80;1.60;;;;;;;;;;5089725;28;20472;-76
2021/12/31 03:48:24;;;;;;;2.33;1.70;;;;;;;;;;5086497;28;20462;-76
2021/12/31 03:50:51;;;;;;;2.33;1.50;;;;;;;;;;5088092;28;20474;-77
2021/12/31 03:53:19;;;;;;;3.80;1.50;;;;;;;;;;5087713;28;20467;-76
2021/12/31 03:55:47;;;;;;;2.33;1.70;;;;;;;;;;5071175;28;20492;-77
2021/12/31 03:58:14;;;;;;;2.93;1.57;;;;;;;;;;5089433;28;20570;-76
2021/12/31 04:00:41;;;;;;;2.73;2.10;;;;;;;;;;5089433;28;20488;-77
2021/12/31 04:03:09;;;;;;;2.87;1.60;;;;;;;;;;5088452;28;20490;-76
2021/12/31 04:05:37;;;;;;;4.80;2.00;;;;;;;;;;5067763;28;20823;-77
2021/12/31 04:08:05;;;;;;;3.00;1.77;;;;;;;;;;5070069;28;20779;-76
2021/12/31 04:10:32;;;;;;;3.43;1.60;;;;;;;;;;5071831;28;20826;-78
2021/12/31 04:12:59;;;;;;;2.57;1.43;;;;;;;;;;5071643;28;20757;-76
2021/12/31 04:15:27;;;;;;;3.47;1.60;;;;;;;;;;5090121;28;20636;-76
2021/12/31 04:17:54;;;;;;;4.50;1.90;;;;;;;;;;5085391;28;20477;-78
2021/12/31 04:20:32;;;;;;;2.93;1.67;;;;;;;;;;5086455;28;20493;-76
2021/12/31 04:23:02;;;;;;;3.40;1.60;;;;;;;;;;5066344;28;20515;-78
2021/12/31 04:25:29;;;;;;;2.33;1.40;;;;;;;;;;5072526;28;20461;-76
2021/12/31 04:27:56;;;;;;;2.03;1.80;;;;;;;;;;5088188;28;20549;-77
2021/12/31 04:30:23;;;;;;;3.87;1.80;;;;;;;;;;5088375;28;20481;-77
2021/12/31 04:32:50;;;;;;;3.17;1.83;;;;;;;;;;5084058;28;20484;-76
2021/12/31 04:35:18;;;;;;;2.30;1.90;;;;;;;;;;5090911;28;20454;-76
2021/12/31 04:37:46;;;;;;;1.80;1.27;;;;;;;;;;5090001;28;20463;-78
2021/12/31 04:40:14;;;;;;;3.57;2.00;;;;;;;;;;5086680;28;20823;-78
2021/12/31 04:42:42;;;;;;;3.63;1.60;;;;;;;;;;5086267;28;20821;-77
2021/12/31 04:45:10;;;;;;;4.17;1.50;;;;;;;;;;5087280;28;20752;-76
2021/12/31 04:47:38;;;;;;;2.93;1.70;;;;;;;;;;5090189;28;20442;-76
2021/12/31 04:50:06;;;;;;;3.87;2.00;;;;;;;;;;5070944;28;20999;-77
2021/12/31 04:52:33;;;;;;;2.40;1.60;;;;;;;;;;5067082;28;20478;-78
2021/12/31 04:55:00;;;;;;;2.10;1.70;;;;;;;;;;5077872;28;20449;-77
2021/12/31 04:57:28;;;;;;;1.63;1.50;;;;;;;;;;5094908;28;20463;-78
2021/12/31 04:59:56;;;;;;;2.77;1.67;;;;;;;;;;5095688;28;20471;-78
2021/12/31 08:48:13;;;;;;;4.00;2.70;;;;;;;;;;5678204;22;21150;-78
2021/12/31 08:50:41;;;;;;;3.20;2.10;;;;;;;;;;5085394;28;21030;-76
2021/12/31 08:53:08;;;;;;;2.40;1.93;;;;;;;;;;5088666;28;20494;-78
2021/12/31 08:55:35;;;;;;;5.27;2.23;;;;;;;;;;5088761;28;20436;-76
2021/12/31 08:58:02;;;;;;;4.83;2.50;;;;;;;;;;5085725;28;20467;-76
2021/12/31 09:00:30;;;;;;;2.23;2.03;;;;;;;;;;5069672;28;20957;-79
2021/12/31 09:02:57;;;;;;;2.53;2.33;;;;;;;;;;5070263;28;21193;-80
2021/12/31 09:05:27;;;;;;;2.83;1.90;;;;;;;;;;5071210;28;20446;-81
2021/12/31 09:07:55;;;;;;;2.27;2.07;;;;;;;;;;5069430;28;21057;-79
2021/12/31 09:10:22;;;;;;;2.43;2.23;;;;;;;;;;5066882;28;20763;-76
2021/12/31 09:12:50;;;;;;;8.30;1.97;;;;;;;;;;5068557;28;20475;-80
2021/12/31 09:15:17;;;;;;;4.00;1.93;;;;;;;;;;5072105;28;20448;-79
2021/12/31 09:17:47;;;;;;;3.50;2.23;;;;;;;;;;5070208;28;20487;-78
2021/12/31 09:20:14;;;;;;;2.70;2.07;;;;;;;;;;5071620;28;21556;-87
2021/12/31 09:22:42;;;;;;;3.43;2.40;;;;;;;;;;5069337;28;21059;-82
2021/12/31 09:25:19;;;;;;;2.43;2.17;;;;;;;;;;5067730;28;20799;-77
2021/12/31 09:27:46;;;;;;;3.57;2.30;;;;;;;;;;5067358;28;20472;-77
2021/12/31 09:30:13;;;;;;;2.80;1.93;;;;;;;;;;5070075;28;20852;-82
2021/12/31 09:32:41;;;;;;;3.50;2.07;;;;;;;;;;5070266;28;20516;-78
2021/12/31 09:35:09;;;;;;;2.23;1.87;;;;;;;;;;5070995;28;20774;-79
2021/12/31 09:37:36;;;;;;;2.07;1.87;;;;;;;;;;5071325;28;20443;-77
2021/12/31 09:40:05;;;;;;;3.70;1.93;;;;;;;;;;5070677;28;20461;-80
2021/12/31 09:42:32;;;;;;;4.23;2.17;;;;;;;;;;5066952;28;20465;-79
2021/12/31 09:44:59;;;;;;;2.23;1.97;;;;;;;;;;5065006;28;20444;-83
2021/12/31 09:47:27;;;;;;;1.80;1.60;;;;;;;;;;5066717;28;20460;-78
2021/12/31 09:49:54;;;;;;;2.80;2.10;;;;;;;;;;5070170;28;20551;-77
2021/12/31 09:52:22;;;;;;;2.20;2.00;;;;;;;;;;5068116;28;20491;-76
2021/12/31 09:54:50;;;;;;;2.23;1.73;;;;;;;;;;5069281;28;20453;-77
2021/12/31 09:57:19;;;;;;;5.13;2.03;;;;;;;;;;5069440;28;20809;-84
2021/12/31 09:59:47;;;;;;;3.17;2.63;;;;;;;;;;5050536;28;20461;-78
2021/12/31 10:02:15;;;;;;;3.60;2.13;;;;;;;;;;5064922;28;20444;-79
2021/12/31 10:04:57;;;;;;;2.10;1.90;;;;;;;;;;5068986;28;20440;-80
2021/12/31 10:07:26;;;;;;;3.03;1.80;;;;;;;;;;5053421;28;21002;-79
2021/12/31 10:10:08;;;;;;;3.13;2.10;;;;;;;;;;5068683;28;20476;-81
2021/12/31 10:12:50;;;;;;;3.30;2.07;;;;;;;;;;5053089;28;20472;-78
2021/12/31 10:15:20;;;;;;;2.60;2.40;;;;;;;;;;5036088;28;20473;-78
2021/12/31 10:17:47;;;;;;;2.83;2.10;;;;;;;;;;5047634;28;20848;-78
2021/12/31 10:20:15;;;;;;;5.07;2.37;;;;;;;;;;5048802;28;21294;-79
2021/12/31 10:22:42;;;;;;;2.80;1.87;;;;;;;;;;5066706;28;20454;-76
2021/12/31 10:25:17;;;;;;;3.50;2.17;;;;;;;;;;5070189;28;20457;-78
2021/12/31 10:27:44;;;;;;;5.40;2.30;;;;;;;;;;5053163;28;20449;-78
2021/12/31 10:30:12;;;;;;;2.80;2.50;;;;;;;;;;5070218;28;20891;-76
2021/12/31 10:32:41;;;;;;;2.87;2.30;;;;;;;;;;5068447;28;20828;-80
2021/12/31 10:35:09;;;;;;;3.20;2.80;;;;;;;;;;5072396;28;20449;-82
2021/12/31 10:37:42;;;;;;;2.47;2.27;;;;;;;;;;5070734;28;20462;-76
2021/12/31 10:40:10;;;;;;;2.30;1.90;;;;;;;;;;5050646;28;20544;-81
2021/12/31 10:42:38;;;;;;;2.60;2.40;;;;;;;;;;5064830;28;20470;-78
2021/12/31 10:45:06;;;;;;;3.50;2.17;;;;;;;;;;5068531;28;20428;-80
2021/12/31 10:47:37;;;;;;;3.23;2.93;;;;;;;;;;5068966;28;20458;-76
2021/12/31 10:50:19;;;;;;;3.27;2.50;;;;;;;;;;5063726;28;21073;-78
2021/12/31 10:52:58;;;;;;;3.10;2.43;;;;;;;;;;5053831;28;20484;-76
2021/12/31 10:55:27;;;;;;;3.90;2.37;;;;;;;;;;5062293;28;20460;-79
2021/12/31 10:57:58;;;;;;;3.23;2.27;;;;;;;;;;5050838;28;20555;-80
2021/12/31 11:00:26;;;;;;;2.17;1.70;;;;;;;;;;5033522;28;21249;-79
2021/12/31 11:03:00;;;;;;;2.50;2.13;;;;;;;;;;5059645;28;20440;-76
2021/12/31 11:05:27;;;;;;;2.37;2.10;;;;;;;;;;5064120;28;20488;-77
2021/12/31 11:08:13;;;;;;;2.80;2.03;;;;;;;;;;5066635;28;20460;-81
2021/12/31 11:10:40;;;;;;;3.00;1.90;;;;;;;;;;5051335;28;20467;-80
2021/12/31 11:13:11;;;;;;;2.50;2.13;;;;;;;;;;5069440;28;20495;-83
2021/12/31 11:15:39;;;;;;;2.30;2.10;;;;;;;;;;5067804;28;20509;-77
2021/12/31 11:18:08;;;;;;;3.00;2.10;;;;;;;;;;5067676;28;20822;-80
2021/12/31 11:20:36;;;;;;;3.03;2.20;;;;;;;;;;5065113;28;20448;-78
2021/12/31 11:23:06;;;;;;;2.97;2.43;;;;;;;;;;5066440;28;20520;-80
2021/12/31 11:25:34;;;;;;;2.67;2.23;;;;;;;;;;5067228;28;20466;-77
2021/12/31 11:28:01;;;;;;;2.83;2.13;;;;;;;;;;5069265;28;20463;-79
2021/12/31 11:30:30;;;;;;;2.00;1.80;;;;;;;;;;5069486;28;21034;-79
2021/12/31 11:32:58;;;;;;;2.53;1.90;;;;;;;;;;5069228;28;20483;-76
2021/12/31 11:35:30;;;;;;;2.97;2.07;;;;;;;;;;5069715;28;20463;-77
2021/12/31 11:37:57;;;;;;;2.93;1.80;;;;;;;;;;5071347;28;20456;-79
2021/12/31 11:40:29;;;;;;;3.30;2.40;;;;;;;;;;5067685;28;20437;-79
2021/12/31 11:43:11;;;;;;;1.80;1.70;;;;;;;;;;5064070;28;20463;-86
2021/12/31 11:45:38;;;;;;;2.23;2.03;;;;;;;;;;5066254;28;20443;-79
2021/12/31 11:48:28;;;;;;;2.37;1.93;;;;;;;;;;5067967;28;20475;-79
2021/12/31 11:51:04;;;;;;;2.03;1.80;;;;;;;;;;5039087;28;20452;-79
2021/12/31 11:53:31;;;;;;;2.23;2.03;;;;;;;;;;5067770;28;20841;-79
2021/12/31 11:56:00;;;;;;;2.40;2.10;;;;;;;;;;5069289;28;20874;-77
2021/12/31 11:58:42;;;;;;;2.70;2.30;;;;;;;;;;5069951;28;20479;-79
2021/12/31 12:01:24;;;;;;;2.47;2.07;;;;;;;;;;5054407;28;20444;-83
2021/12/31 12:03:51;;;;;;;2.20;2.00;;;;;;;;;;5050006;28;20431;-77
2021/12/31 12:06:33;;;;;;;2.57;2.20;;;;;;;;;;5064090;28;20441;-76
2021/12/31 12:09:00;;;;;;;2.73;2.33;;;;;;;;;;5052844;28;20824;-79
2021/12/31 12:11:42;;;;;;;3.43;1.73;;;;;;;;;;5068660;28;20440;-76
2021/12/31 12:14:24;;;;;;;1.90;1.70;;;;;;;;;;5066090;28;20521;-79
2021/12/31 12:17:00;;;;;;;2.40;1.70;;;;;;;;;;5051792;28;20462;-80
2021/12/31 12:19:42;;;;;;;3.23;2.37;;;;;;;;;;5070212;28;20570;-79
2021/12/31 12:22:12;;;;;;;3.77;2.90;;;;;;;;;;5046994;28;20440;-77
2021/12/31 12:24:40;;;;;;;3.50;2.40;;;;;;;;;;5061468;28;20930;-78
2021/12/31 12:27:07;;;;;;;2.77;2.57;;;;;;;;;;5067223;28;20505;-83
2021/12/31 12:29:34;;;;;;;6.57;2.23;;;;;;;;;;5068829;28;20544;-83
2021/12/31 12:32:11;;;;;;;5.87;2.83;;;;;;;;;;5069749;28;20945;-81
2021/12/31 12:34:39;;;;;;;2.90;1.90;;;;;;;;;;5068963;28;20433;-82
2021/12/31 12:37:06;;;;;;;2.93;2.67;;;;;;;;;;5068795;28;20800;-78
2021/12/31 12:39:34;;;;;;;2.00;1.90;;;;;;;;;;5063604;28;20996;-77
2021/12/31 12:42:07;;;;;;;4.67;2.30;;;;;;;;;;5065387;28;20459;-77
2021/12/31 12:44:34;;;;;;;2.50;2.30;;;;;;;;;;5067576;28;20975;-78
2021/12/31 12:47:02;;;;;;;2.60;2.40;;;;;;;;;;5068759;28;20808;-82
2021/12/31 12:49:30;;;;;;;2.53;2.20;;;;;;;;;;5067400;28;20499;-77
2021/12/31 12:52:11;;;;;;;2.90;2.30;;;;;;;;;;5068466;28;20456;-76
2021/12/31 12:54:41;;;;;;;3.33;2.13;;;;;;;;;;5045823;28;20468;-80
2021/12/31 12:57:08;;;;;;;2.40;1.93;;;;;;;;;;5065045;28;20464;-80
2021/12/31 12:59:37;;;;;;;2.30;2.10;;;;;;;;;;5065342;28;20470;-80
2021/12/31 13:02:04;;;;;;;2.73;2.40;;;;;;;;;;5068036;28;20440;-78
2021/12/31 13:04:33;;;;;;;4.07;2.47;;;;;;;;;;5067881;28;20447;-77
2021/12/31 13:07:02;;;;;;;2.40;2.20;;;;;;;;;;5068860;28;20442;-80
2021/12/31 13:09:30;;;;;;;4.27;1.93;;;;;;;;;;5069658;28;20575;-87
2021/12/31 13:11:59;;;;;;;3.53;2.80;;;;;;;;;;5066498;28;20460;-80
2021/12/31 13:14:30;;;;;;;2.57;2.07;;;;;;;;;;5066258;28;20498;-80
2021/12/31 13:16:59;;;;;;;2.50;2.30;;;;;;;;;;5071793;28;20452;-80
2021/12/31 13:19:30;;;;;;;4.13;2.93;;;;;;;;;;5054068;28;20540;-79
2021/12/31 13:22:00;;;;;;;2.30;2.10;;;;;;;;;;5071390;28;20793;-79
2021/12/31 13:24:28;;;;;;;4.13;1.90;;;;;;;;;;5073012;28;20436;-76
2021/12/31 13:26:57;;;;;;;3.47;3.10;;;;;;;;;;5071389;28;20540;-82
2021/12/31 13:29:32;;;;;;;2.33;1.97;;;;;;;;;;5068988;28;20483;-76
2021/12/31 13:32:05;;;;;;;2.70;1.90;;;;;;;;;;5054458;28;20432;-76
2021/12/31 13:34:39;;;;;;;4.03;2.50;;;;;;;;;;5074433;28;20852;-78
2021/12/31 13:37:08;;;;;;;2.50;1.97;;;;;;;;;;5072727;28;20497;-79
2021/12/31 13:39:39;;;;;;;2.60;2.23;;;;;;;;;;5071012;28;20464;-77
2021/12/31 13:42:12;;;;;;;1.77;1.50;;;;;;;;;;5070746;28;20543;-80
2021/12/31 13:44:40;;;;;;;1.80;1.60;;;;;;;;;;5068372;28;20800;-77
2021/12/31 13:47:09;;;;;;;2.53;1.90;;;;;;;;;;5066412;28;20457;-80
2021/12/31 13:49:38;;;;;;;1.70;1.50;;;;;;;;;;5047190;28;20703;-79
2021/12/31 13:52:20;;;;;;;3.00;1.83;;;;;;;;;;5071326;28;20920;-81
2021/12/31 13:54:49;;;;;;;1.60;1.50;;;;;;;;;;5053681;28;20479;-81
2021/12/31 13:57:18;;;;;;;2.00;1.43;;;;;;;;;;5069857;28;20460;-78
2021/12/31 13:59:46;;;;;;;2.37;1.50;;;;;;;;;;5073068;28;21305;-82
2021/12/31 14:02:17;;;;;;;2.60;1.63;;;;;;;;;;5073299;28;20480;-76
2021/12/31 14:04:59;;;;;;;1.73;1.43;;;;;;;;;;5073790;28;20444;-79
2021/12/31 14:07:35;;;;;;;2.10;1.90;;;;;;;;;;5066892;28;20527;-78
2021/12/31 14:10:05;;;;;;;2.23;1.50;;;;;;;;;;5070405;28;20436;-78
2021/12/31 14:12:32;;;;;;;1.57;1.47;;;;;;;;;;5069748;28;20462;-79
2021/12/31 14:14:59;;;;;;;2.50;1.50;;;;;;;;;;5071562;28;20439;-78
2021/12/31 14:17:26;;;;;;;2.03;1.50;;;;;;;;;;5071634;28;20436;-79
2021/12/31 14:19:54;;;;;;;1.90;1.60;;;;;;;;;;5070844;28;20520;-80
2021/12/31 14:22:21;;;;;;;2.20;1.50;;;;;;;;;;5073162;28;20457;-78
2021/12/31 14:24:48;;;;;;;1.87;1.33;;;;;;;;;;5072087;28;20475;-80
2021/12/31 14:27:16;;;;;;;2.07;1.30;;;;;;;;;;5071605;28;20434;-78
2021/12/31 14:29:44;;;;;;;2.37;1.57;;;;;;;;;;5068785;28;20662;-80
2021/12/31 14:32:11;;;;;;;1.83;1.70;;;;;;;;;;5067309;28;20436;-80
2021/12/31 14:34:38;;;;;;;1.67;1.57;;;;;;;;;;5062878;28;21045;-82
2021/12/31 14:37:09;;;;;;;4.30;2.30;;;;;;;;;;5069269;28;20445;-82
2021/12/31 14:39:37;;;;;;;2.80;1.77;;;;;;;;;;5070799;28;20555;-83
2021/12/31 14:42:05;;;;;;;2.37;1.70;;;;;;;;;;5069889;28;20483;-81
2021/12/31 14:44:34;;;;;;;2.53;1.73;;;;;;;;;;5066815;28;20784;-82
2021/12/31 14:47:02;;;;;;;2.20;1.77;;;;;;;;;;5069007;28;20422;-81
2021/12/31 14:49:35;;;;;;;3.60;1.93;;;;;;;;;;5068668;28;20919;-81
2021/12/31 14:52:02;;;;;;;2.37;1.60;;;;;;;;;;5068079;28;20549;-78
2021/12/31 14:54:29;;;;;;;2.30;1.73;;;;;;;;;;5050863;28;20620;-82
2021/12/31 14:56:56;;;;;;;3.57;1.90;;;;;;;;;;5069822;28;20470;-81
2021/12/31 14:59:24;;;;;;;2.10;1.90;;;;;;;;;;5070892;28;20468;-82
2021/12/31 15:01:52;;;;;;;3.17;1.80;;;;;;;;;;5068720;28;20491;-80
2021/12/31 15:04:19;;;;;;;2.97;2.10;;;;;;;;;;5067638;28;20927;-84
2021/12/31 15:06:46;;;;;;;2.00;1.73;;;;;;;;;;5068409;28;20803;-83
2021/12/31 15:09:14;;;;;;;2.87;2.07;;;;;;;;;;5070356;28;20460;-81
2021/12/31 15:11:41;;;;;;;3.73;1.90;;;;;;;;;;5069449;28;20440;-82
2021/12/31 15:14:08;;;;;;;2.83;2.20;;;;;;;;;;5068958;28;20486;-83
2021/12/31 15:16:35;;;;;;;2.77;1.90;;;;;;;;;;5068681;28;20460;-85
2021/12/31 15:19:06;;;;;;;2.27;1.83;;;;;;;;;;5070892;28;20456;-81
2021/12/31 15:21:34;;;;;;;3.23;1.80;;;;;;;;;;5068319;28;20441;-82
2021/12/31 15:24:01;;;;;;;3.80;1.80;;;;;;;;;;5068898;28;20444;-83
2021/12/31 15:26:28;;;;;;;4.27;2.03;;;;;;;;;;5070301;28;20523;-84
2021/12/31 15:28:55;;;;;;;2.97;2.00;;;;;;;;;;5068854;28;20464;-84
2021/12/31 15:31:23;;;;;;;4.20;2.60;;;;;;;;;;5069075;28;20457;-82
2021/12/31 15:33:50;;;;;;;4.07;2.50;;;;;;;;;;5068482;28;20472;-84
2021/12/31 15:36:19;;;;;;;3.13;2.30;;;;;;;;;;5065846;28;20452;-79
2021/12/31 15:38:46;;;;;;;2.10;1.90;;;;;;;;;;5065094;28;20483;-83
2021/12/31 15:41:13;;;;;;;2.73;2.13;;;;;;;;;;5069339;28;20444;-85
2021/12/31 15:43:42;;;;;;;2.97;2.53;;;;;;;;;;5068043;28;20452;-81
2021/12/31 15:46:09;;;;;;;3.13;2.67;;;;;;;;;;5068775;28;20495;-80
2021/12/31 15:48:38;;;;;;;4.10;2.43;;;;;;;;;;5067886;28;20490;-81
2021/12/31 15:51:05;;;;;;;6.13;2.90;;;;;;;;;;5055513;28;20506;-83
2021/12/31 15:53:34;;;;;;;3.30;2.80;;;;;;;;;;5064654;28;20460;-83
2021/12/31 15:56:09;;;;;;;7.87;3.50;;;;;;;;;;5064744;28;21419;-80
2021/12/31 15:58:41;;;;;;;4.80;3.80;;;;;;;;;;5064806;28;20485;-80
2021/12/31 16:01:09;;;;;;;5.00;3.10;;;;;;;;;;5069253;28;20451;-83
2021/12/31 16:03:42;;;;;;;5.63;3.00;;;;;;;;;;5069683;28;20436;-82
2021/12/31 16:06:19;;;;;;;5.60;2.20;;;;;;;;;;5069428;28;20544;-85
2021/12/31 16:08:49;;;;;;;5.23;3.10;;;;;;;;;;5068816;28;20486;-80
2021/12/31 16:11:26;;;;;;;3.67;2.77;;;;;;;;;;5063908;28;20793;-82
2021/12/31 16:13:58;;;;;;;5.83;2.87;;;;;;;;;;5065500;28;20597;-83
2021/12/31 16:16:25;;;;;;;7.10;2.90;;;;;;;;;;5069730;28;20556;-79
2021/12/31 16:18:54;;;;;;;3.17;2.40;;;;;;;;;;5068601;28;20472;-75
2021/12/31 16:21:21;;;;;;;6.27;3.20;;;;;;;;;;5067712;28;20462;-77
2021/12/31 16:23:50;;;;;;;10.17;2.87;;;;;;;;;;5067445;28;20944;-80
2021/12/31 16:26:17;;;;;;;5.80;3.50;;;;;;;;;;5068703;28;20463;-78
2021/12/31 16:28:44;;;;;;;5.53;3.43;;;;;;;;;;5068486;28;20474;-78
2021/12/31 16:31:12;;;;;;;5.13;3.10;;;;;;;;;;5069087;28;20458;-78
2021/12/31 16:33:39;;;;;;;7.00;4.30;;;;;;;;;;5069102;28;20473;-81
2021/12/31 16:36:07;;;;;;;6.80;4.53;;;;;;;;;;5037102;28;20444;-77
2021/12/31 16:38:34;;;;;;;7.70;4.90;;;;;;;;;;5032419;28;20507;-79
2021/12/31 16:41:03;;;;;;;12.53;5.07;;;;;;;;;;5060927;28;20444;-81
2021/12/31 16:43:30;;;;;;;9.10;5.40;;;;;;;;;;5066206;28;20456;-78
2021/12/31 16:45:58;;;;;;;5.70;3.30;;;;;;;;;;5066417;28;21440;-76
2021/12/31 16:48:26;;;;;;;8.80;4.87;;;;;;;;;;5065981;28;20484;-81
2021/12/31 16:50:53;;;;;;;11.57;6.40;;;;;;;;;;5072267;28;20439;-82
2021/12/31 16:53:20;;;;;;;12.37;6.97;;;;;;;;;;5072271;28;20447;-78
2021/12/31 16:55:48;;;;;;;7.47;5.30;;;;;;;;;;5071853;28;20497;-81
2021/12/31 16:58:16;;;;;;;4.30;3.20;;;;;;;;;;5070411;28;20467;-75
2021/12/31 17:00:44;;;;;;;6.20;3.50;;;;;;;;;;5072464;28;20447;-78
2021/12/31 17:03:11;;;;;;;5.87;3.13;;;;;;;;;;5052898;28;20803;-79
2021/12/31 17:05:38;;;;;;;10.03;3.60;;;;;;;;;;5071205;28;20936;-77
2021/12/31 17:08:06;;;;;;;4.33;3.13;;;;;;;;;;5072478;28;20986;-80
2021/12/31 17:10:35;;;;;;;6.40;3.53;;;;;;;;;;5072456;28;20534;-78
2021/12/31 17:13:02;;;;;;;7.70;3.77;;;;;;;;;;5067163;28;20522;-80
2021/12/31 17:15:31;;;;;;;5.03;3.87;;;;;;;;;;5072739;28;20485;-81
2021/12/31 17:17:58;;;;;;;4.70;3.90;;;;;;;;;;5072549;28;20483;-80
2021/12/31 17:20:25;;;;;;;3.77;3.43;;;;;;;;;;5070908;28;20451;-78
2021/12/31 17:22:53;;;;;;;4.40;3.73;;;;;;;;;;5069449;28;20459;-77
2021/12/31 17:25:20;;;;;;;4.47;3.73;;;;;;;;;;5070319;28;20440;-78
2021/12/31 17:27:47;;;;;;;4.87;3.50;;;;;;;;;;5072501;28;20465;-77
2021/12/31 17:30:14;;;;;;;4.50;3.67;;;;;;;;;;5071880;28;20446;-79
2021/12/31 17:32:43;;;;;;;4.70;3.87;;;;;;;;;;5072509;28;20540;-77
2021/12/31 17:35:10;;;;;;;6.20;4.23;;;;;;;;;;5049806;28;20496;-81
2021/12/31 17:37:38;;;;;;;7.87;5.20;;;;;;;;;;5071887;28;20459;-78
2021/12/31 17:40:06;;;;;;;7.00;5.80;;;;;;;;;;5072655;28;20465;-79
2021/12/31 17:42:33;;;;;;;8.10;4.20;;;;;;;;;;5070662;28;20893;-81
2021/12/31 17:45:01;;;;;;;10.00;5.63;;;;;;;;;;5068372;28;20474;-79
2021/12/31 17:47:28;;;;;;;8.67;6.20;;;;;;;;;;5069986;28;20528;-77
2021/12/31 17:49:56;;;;;;;9.40;5.30;;;;;;;;;;5069988;28;20490;-80
2021/12/31 17:52:23;;;;;;;6.37;4.20;;;;;;;;;;5071241;28;20458;-82
2021/12/31 17:54:51;;;;;;;8.43;4.70;;;;;;;;;;5073542;28;20845;-81
2021/12/31 17:57:18;;;;;;;7.10;4.00;;;;;;;;;;5069535;28;20816;-83
2021/12/31 17:59:46;;;;;;;5.60;4.57;;;;;;;;;;5077027;28;20458;-81
2021/12/31 18:02:14;;;;;;;7.10;5.27;;;;;;;;;;5077516;28;20444;-81
2021/12/31 18:04:41;;;;;;;7.07;5.30;;;;;;;;;;5072156;28;20509;-81
2021/12/31 18:07:09;;;;;;;10.73;7.40;;;;;;;;;;5068289;28;20927;-79
2021/12/31 18:09:36;;;;;;;13.80;9.00;;;;;;;;;;5070590;28;20454;-80
2021/12/31 18:12:04;;;;;;;16.30;10.20;;;;;;;;;;5070816;28;20458;-80
2021/12/31 18:14:31;;;;;;;12.90;8.47;;;;;;;;;;5066809;28;20474;-79
2021/12/31 18:16:58;;;;;;;13.10;7.63;;;;;;;;;;5070925;28;20451;-79
2021/12/31 18:19:26;;;;;;;12.67;7.80;;;;;;;;;;5060528;28;20856;-77
2021/12/31 18:21:53;;;;;;;11.77;8.07;;;;;;;;;;5069278;28;20818;-79
2021/12/31 18:24:22;;;;;;;10.93;7.03;;;;;;;;;;5072519;28;20443;-79
2021/12/31 18:26:50;;;;;;;13.67;7.87;;;;;;;;;;5071506;28;20498;-81
2021/12/31 18:29:17;;;;;;;13.03;7.23;;;;;;;;;;5069676;28;20474;-80
2021/12/31 18:31:44;;;;;;;16.93;9.70;;;;;;;;;;5069047;28;20450;-79
2021/12/31 18:34:12;;;;;;;17.83;8.40;;;;;;;;;;5070224;28;20450;-79
2021/12/31 18:36:39;;;;;;;10.80;7.57;;;;;;;;;;5070733;28;20441;-78
2021/12/31 18:39:06;;;;;;;11.07;7.13;;;;;;;;;;5069030;28;20485;-77